Portada
METAR-TAF:

METAR-TAF

Aeropuertos :

Zagreb, Croacia

Aeropuerto de Zagreb-Franjo Tuđman

latitud: 45-44N, longitud: 016-04E, altitud: 106 m

Observación

El informe se hizo hace 10 minutos, a las 18:00 UTC
Viento 6 kt del noreste, variando entre norte-noreste y este
Temperatura -2°C
Humedad 69%
Presión 1020 hPa
Visibilidad 10 km o más
sin nubes por debajo de 1500 m y sin presencia de cumulonimbus.

METAR: LDZA 241800Z 04006KT 020V080 CAVOK M02/M07 Q1020 R05/29//95 NOSIG

Hora: 19:10 (18:10 UTC)

Pronóstico

El informe se hizo hace 45 minutos, a las 17:25 UTC
Pronóstico válido del 24 a las 18 UTC al 25 a las 18 UTC
Viento 12 kt del noreste
Visibilidad 10 km o más
sin nubes por debajo de 1500 m y sin presencia de cumulonimbus.
Probabilidad 30% :
Temporalmente
del 25 a las 01 UTC al 25 a las 06 UTC
Cielo nuboso a una altura de 1000 ft

TAF: LDZA 241725Z 2418/2518 05012KT CAVOK TXM02/2418Z TNM08/2506Z PROB30 TEMPO 2501/2506 BKN010

Observaciones y pronósticos meteorológicos de más de 4000 aeropuertos (mensajes METAR y TAF).

Los puntos amarillos y rojos representan las estaciones disponibles.

Ponga el ratón en el punto deseado para ver el nombre de la estación.

Haga clic para ver las observaciones y los pronósticos meteorológicos.

Para cambiar el mapa : haga clic en los botones verdes con una cruz de color negro para hacer un zoom, en el botón verde con un guión para alejar o en las flechas verdes para mapas adyacentes.


METAR-TAF: